createdAt,value
2022-08-18T00:02:25.056Z,85.20
2022-08-18T00:04:57.180Z,85.20
2022-08-18T00:07:30.635Z,85.30
2022-08-18T00:09:58.714Z,85.30
2022-08-18T00:12:30.322Z,85.20
2022-08-18T00:14:58.188Z,85.40
2022-08-18T00:17:25.122Z,85.40
2022-08-18T00:19:51.920Z,85.60
2022-08-18T00:22:20.858Z,85.60
2022-08-18T00:24:51.842Z,85.50
2022-08-18T00:27:28.273Z,85.30
2022-08-18T00:30:01.641Z,85.20
2022-08-18T00:32:33.744Z,85.10
2022-08-18T00:35:18.425Z,85.30
2022-08-18T00:37:45.863Z,84.90
2022-08-18T00:40:17.845Z,84.90
2022-08-18T00:42:49.493Z,85.00
2022-08-18T00:45:27.338Z,84.80
2022-08-18T00:47:54.880Z,84.80
2022-08-18T00:50:34.948Z,84.80
2022-08-18T00:53:14.833Z,84.80
2022-08-18T00:55:53.675Z,84.70
2022-08-18T00:58:35.708Z,84.20
2022-08-18T01:01:06.284Z,84.00
2022-08-18T01:03:36.463Z,84.20
2022-08-18T01:06:15.191Z,84.40
2022-08-18T01:08:43.130Z,84.70
2022-08-18T01:11:10.596Z,84.80
2022-08-18T01:13:39.404Z,85.00
2022-08-18T01:16:26.500Z,85.30
2022-08-18T01:19:12.669Z,85.40
2022-08-18T01:21:52.240Z,85.30
2022-08-18T01:24:22.457Z,85.50
2022-08-18T01:26:52.183Z,85.50
2022-08-18T01:29:20.522Z,85.80
2022-08-18T01:31:55.768Z,86.00
2022-08-18T01:34:25.257Z,86.10
2022-08-18T01:36:54.174Z,86.30
2022-08-18T01:41:24.475Z,86.40
2022-08-18T01:42:09.596Z,86.50
2022-08-18T01:44:36.859Z,86.50
2022-08-18T01:47:04.109Z,86.70
2022-08-18T01:49:31.103Z,86.80
2022-08-18T01:51:58.013Z,86.90
2022-08-18T01:54:30.133Z,86.90
2022-08-18T01:56:57.774Z,87.00
2022-08-18T01:59:25.075Z,87.10
2022-08-18T02:01:55.695Z,87.30
2022-08-18T02:04:37.091Z,87.30
2022-08-18T02:07:08.491Z,87.30
2022-08-18T02:09:36.736Z,87.20
2022-08-18T02:12:05.546Z,87.30
2022-08-18T02:14:32.698Z,87.40
2022-08-18T02:17:02.414Z,87.30
2022-08-18T02:19:51.752Z,87.30
2022-08-18T02:22:20.469Z,87.30
2022-08-18T02:24:47.771Z,87.30
2022-08-18T02:27:16.588Z,87.40
2022-08-18T02:29:43.413Z,87.40
2022-08-18T02:32:10.260Z,87.30
2022-08-18T02:34:37.127Z,87.40
2022-08-18T02:37:04.356Z,87.50
2022-08-18T02:39:33.658Z,87.60
2022-08-18T02:42:00.440Z,87.60
2022-08-18T02:44:27.161Z,87.60
2022-08-18T02:46:55.031Z,87.80
2022-08-18T02:49:22.483Z,88.60
2022-08-18T02:51:51.113Z,87.70
2022-08-18T02:54:22.726Z,87.80
2022-08-18T02:56:54.150Z,88.60
2022-08-18T02:59:27.527Z,87.80
2022-08-18T03:01:55.984Z,87.70
2022-08-18T03:04:29.550Z,87.70
2022-08-18T03:06:59.807Z,87.70
2022-08-18T03:09:27.591Z,87.50
2022-08-18T03:11:54.643Z,87.50
2022-08-18T03:14:21.948Z,87.40
2022-08-18T03:16:53.910Z,87.50
2022-08-18T03:19:28.404Z,87.70
2022-08-18T03:21:59.345Z,87.60
2022-08-18T03:24:29.719Z,87.60
2022-08-18T03:26:57.341Z,87.70
2022-08-18T03:29:30.959Z,87.70
2022-08-18T03:31:59.131Z,87.70
2022-08-18T03:34:25.867Z,87.80
2022-08-18T03:36:52.620Z,87.80
2022-08-18T03:39:20.581Z,87.90
2022-08-18T03:41:59.265Z,88.10
2022-08-18T03:44:30.795Z,88.10
2022-08-18T03:46:57.807Z,88.20
2022-08-18T03:49:26.878Z,88.30
2022-08-18T03:51:54.488Z,88.40
2022-08-18T03:54:21.272Z,88.50
2022-08-18T03:56:49.468Z,88.40
2022-08-18T03:59:19.755Z,88.30
2022-08-18T04:01:48.515Z,87.90
2022-08-18T04:04:19.326Z,87.70
2022-08-18T04:06:58.854Z,87.60
2022-08-18T04:09:28.587Z,87.70
2022-08-18T04:11:55.645Z,88.00
2022-08-18T04:14:25.356Z,87.90
2022-08-18T04:16:52.533Z,87.50
2022-08-18T04:19:25.157Z,87.50
2022-08-18T04:21:56.968Z,87.30
2022-08-18T04:24:24.078Z,87.20
2022-08-18T04:26:51.801Z,87.30
2022-08-18T04:29:21.418Z,87.30
2022-08-18T04:31:50.116Z,87.00
2022-08-18T04:34:17.872Z,87.00
2022-08-18T04:36:45.056Z,86.90
2022-08-18T04:39:13.110Z,86.80
2022-08-18T04:41:43.583Z,86.80
2022-08-18T04:44:12.172Z,86.40
2022-08-18T04:46:47.961Z,86.50
2022-08-18T04:49:16.766Z,86.70
2022-08-18T04:52:37.404Z,86.90
2022-08-18T04:54:55.103Z,87.00
2022-08-18T04:57:23.003Z,87.20
2022-08-18T04:59:52.166Z,87.30
2022-08-18T05:02:21.445Z,87.50
2022-08-18T05:04:48.678Z,87.60
2022-08-18T05:07:18.982Z,87.60
2022-08-18T05:09:46.887Z,87.70
2022-08-18T05:12:14.884Z,87.70
2022-08-18T05:14:46.533Z,87.70
2022-08-18T05:17:15.267Z,87.70
2022-08-18T05:19:44.615Z,87.80
2022-08-18T05:22:19.461Z,87.80
2022-08-18T05:24:55.488Z,87.70
2022-08-18T05:27:22.270Z,87.60
2022-08-18T05:29:51.699Z,87.60
2022-08-18T05:32:41.138Z,87.70
2022-08-18T05:35:12.252Z,87.70
2022-08-18T05:38:13.906Z,87.80
2022-08-18T05:40:42.027Z,87.60
2022-08-18T05:43:10.096Z,88.00
2022-08-18T05:45:39.396Z,88.20
2022-08-18T05:48:06.594Z,88.30
2022-08-18T05:50:37.239Z,88.40
2022-08-18T05:53:14.587Z,88.50
2022-08-18T05:56:14.632Z,88.70
2022-08-18T05:58:46.831Z,88.70
2022-08-18T06:01:22.782Z,88.70
2022-08-18T06:04:02.606Z,88.50
2022-08-18T06:06:32.103Z,88.50
2022-08-18T06:09:30.589Z,88.70
2022-08-18T06:12:10.845Z,88.90
2022-08-18T06:14:39.396Z,88.90
2022-08-18T06:17:48.357Z,89.00
2022-08-18T06:20:22.064Z,88.80
2022-08-18T06:23:08.217Z,88.90
2022-08-18T06:26:08.523Z,88.70
2022-08-18T06:28:55.149Z,88.70
2022-08-18T06:31:52.870Z,88.70
2022-08-18T06:34:57.697Z,88.60
2022-08-18T06:38:01.186Z,88.50
2022-08-18T06:40:28.725Z,88.60
2022-08-18T06:42:56.227Z,88.70
2022-08-18T06:45:40.099Z,88.70
2022-08-18T06:48:28.817Z,88.70
2022-08-18T06:51:03.933Z,88.50
2022-08-18T06:53:51.328Z,88.60
2022-08-18T06:56:37.348Z,88.40
2022-08-18T06:59:23.033Z,88.60
2022-08-18T07:01:53.870Z,88.50
2022-08-18T07:04:43.265Z,88.60
2022-08-18T07:07:18.594Z,88.20
2022-08-18T07:09:45.548Z,88.20
2022-08-18T07:12:20.665Z,88.10
2022-08-18T07:14:52.070Z,88.10
2022-08-18T07:17:43.489Z,88.10
2022-08-18T07:20:24.897Z,90.00
2022-08-18T07:23:08.370Z,90.20
2022-08-18T07:25:46.043Z,88.70
2022-08-18T07:28:45.040Z,85.90
2022-08-18T07:31:19.966Z,85.20
2022-08-18T07:33:57.342Z,81.40
2022-08-18T07:36:28.688Z,78.30
2022-08-18T07:39:02.916Z,75.90
2022-08-18T07:41:42.827Z,73.60
2022-08-18T07:44:22.515Z,72.10
2022-08-18T07:47:00.724Z,70.90
2022-08-18T07:49:33.502Z,70.10
2022-08-18T07:52:19.234Z,68.40
2022-08-18T07:55:16.505Z,67.20
2022-08-18T07:57:56.414Z,69.30
2022-08-18T08:00:58.324Z,66.50
2022-08-18T08:03:51.714Z,64.80
2022-08-18T08:06:34.950Z,65.40
2022-08-18T08:09:29.972Z,66.70
2022-08-18T08:12:08.976Z,67.90
2022-08-18T08:14:46.932Z,67.80
2022-08-18T08:17:25.492Z,68.70
2022-08-18T08:20:04.602Z,68.60
2022-08-18T08:22:40.668Z,68.00
2022-08-18T08:25:45.899Z,67.60
2022-08-18T08:28:31.870Z,66.80
2022-08-18T08:34:24.346Z,66.40
2022-08-18T08:37:00.668Z,67.10
2022-08-18T08:39:42.901Z,66.90
2022-08-18T08:42:41.812Z,66.70
2022-08-18T08:45:35.320Z,67.20
2022-08-18T08:48:27.632Z,67.10
2022-08-18T08:51:31.658Z,67.50
2022-08-18T08:54:23.717Z,67.70
2022-08-18T08:56:54.204Z,67.70
2022-08-18T08:59:22.984Z,68.20
2022-08-18T09:01:58.828Z,68.60
2022-08-18T09:04:34.723Z,69.70
2022-08-18T09:07:38.464Z,70.10
2022-08-18T09:10:44.176Z,69.20
2022-08-18T09:13:29.724Z,68.00
2022-08-18T09:16:29.633Z,67.80
2022-08-18T09:19:17.608Z,67.60
2022-08-18T09:22:14.237Z,67.30
2022-08-18T09:24:50.899Z,67.80
2022-08-18T09:28:07.226Z,67.80
2022-08-18T09:30:43.901Z,67.70
2022-08-18T09:33:44.279Z,67.40
2022-08-18T09:36:34.915Z,66.80
2022-08-18T09:39:35.523Z,66.50
2022-08-18T09:42:14.430Z,66.80
2022-08-18T09:44:49.279Z,66.30
2022-08-18T09:47:23.795Z,66.50
2022-08-18T09:49:56.058Z,66.30
2022-08-18T09:52:25.443Z,65.60
2022-08-18T09:54:55.255Z,65.50
2022-08-18T09:57:25.826Z,65.40
2022-08-18T10:00:26.654Z,63.80
2022-08-18T10:02:55.669Z,63.80
2022-08-18T10:05:31.515Z,62.70
2022-08-18T10:08:07.294Z,62.40
2022-08-18T10:11:00.827Z,62.00
2022-08-18T10:13:53.964Z,60.70
2022-08-18T10:17:13.341Z,60.50
2022-08-18T10:19:50.164Z,62.50
2022-08-18T10:22:43.771Z,60.70
2022-08-18T10:25:22.252Z,61.40
2022-08-18T10:27:54.570Z,60.80
2022-08-18T10:30:34.437Z,59.60
2022-08-18T10:33:17.775Z,59.80
2022-08-18T10:36:32.399Z,58.50
2022-08-18T10:38:59.671Z,58.70
2022-08-18T10:41:31.318Z,58.80
2022-08-18T10:44:00.512Z,57.60
2022-08-18T10:46:34.947Z,56.10
2022-08-18T10:49:14.998Z,56.00
2022-08-18T10:55:17.958Z,56.40
2022-08-18T10:58:23.961Z,57.30
2022-08-18T11:01:12.008Z,57.60
2022-08-18T11:04:04.139Z,58.10
2022-08-18T11:06:47.740Z,58.60
2022-08-18T11:09:26.813Z,58.80
2022-08-18T11:12:00.078Z,59.00
2022-08-18T11:14:46.733Z,58.90
2022-08-18T11:17:35.142Z,59.00
2022-08-18T11:20:05.922Z,59.60
2022-08-18T11:22:35.671Z,58.70
2022-08-18T11:25:24.998Z,58.20
2022-08-18T11:27:56.293Z,57.90
2022-08-18T11:30:31.112Z,57.30
2022-08-18T11:35:57.923Z,56.30
2022-08-18T11:38:26.581Z,56.90
2022-08-18T11:41:14.300Z,56.30
2022-08-18T11:43:46.556Z,56.30
2022-08-18T11:49:33.943Z,56.00
2022-08-18T11:55:23.876Z,56.00
2022-08-18T11:57:58.722Z,56.50
2022-08-18T12:00:48.679Z,56.00
2022-08-18T12:03:41.573Z,56.70
2022-08-18T12:06:19.271Z,57.00
2022-08-18T12:10:07.754Z,57.00
2022-08-18T12:12:28.293Z,56.20
2022-08-18T12:18:10.579Z,55.40
2022-08-18T12:20:45.781Z,55.20
2022-08-18T12:23:18.091Z,54.80
2022-08-18T12:25:44.834Z,54.60
2022-08-18T12:28:11.709Z,54.60
2022-08-18T12:30:38.413Z,54.60
2022-08-18T12:33:12.399Z,54.40
2022-08-18T12:35:41.823Z,54.40
2022-08-18T12:40:56.008Z,54.20
2022-08-18T12:43:23.253Z,54.60
2022-08-18T12:45:53.168Z,54.50
2022-08-18T12:48:22.320Z,54.20
2022-08-18T12:50:54.182Z,54.20
2022-08-18T12:53:30.537Z,53.80
2022-08-18T12:56:32.725Z,54.00
2022-08-18T12:59:06.792Z,54.60
2022-08-18T13:01:36.602Z,53.90
2022-08-18T13:04:12.062Z,53.80
2022-08-18T13:06:45.525Z,53.80
2022-08-18T13:09:35.643Z,53.60
2022-08-18T13:12:16.121Z,54.40
2022-08-18T13:14:44.694Z,54.10
2022-08-18T13:17:30.044Z,54.50
2022-08-18T13:20:00.973Z,54.00
2022-08-18T13:22:32.362Z,53.60
2022-08-18T13:25:05.201Z,53.50
2022-08-18T13:27:33.164Z,53.60
2022-08-18T13:30:29.608Z,53.80
2022-08-18T13:33:00.306Z,53.60
2022-08-18T13:35:37.892Z,53.90
2022-08-18T13:38:17.382Z,53.50
2022-08-18T13:40:48.564Z,53.40
2022-08-18T13:43:17.922Z,53.60
2022-08-18T13:45:47.027Z,53.30
2022-08-18T13:48:20.005Z,52.70
2022-08-18T13:50:52.815Z,52.30
2022-08-18T13:53:21.259Z,52.70
2022-08-18T13:55:48.602Z,52.60
2022-08-18T13:58:20.488Z,52.00
2022-08-18T14:00:52.633Z,52.40
2022-08-18T14:03:42.445Z,51.90
2022-08-18T14:06:11.561Z,52.00
2022-08-18T14:08:40.409Z,51.90
2022-08-18T14:11:07.767Z,51.80
2022-08-18T14:13:38.155Z,51.90
2022-08-18T14:16:10.678Z,51.70
2022-08-18T14:18:40.285Z,51.50
2022-08-18T14:21:31.451Z,51.50
2022-08-18T14:24:16.968Z,51.60
2022-08-18T14:26:51.188Z,51.10
2022-08-18T14:29:46.479Z,51.30
2022-08-18T14:32:17.953Z,51.00
2022-08-18T14:34:51.003Z,51.10
2022-08-18T14:37:18.063Z,51.50
2022-08-18T14:39:48.091Z,51.70
2022-08-18T14:42:41.186Z,51.60
2022-08-18T14:45:31.304Z,51.50
2022-08-18T14:48:07.439Z,51.30
2022-08-18T14:50:49.001Z,51.30
2022-08-18T14:53:20.108Z,50.90
2022-08-18T14:55:52.559Z,50.80
2022-08-18T14:58:27.722Z,50.10
2022-08-18T15:00:59.116Z,50.10
2022-08-18T15:03:31.391Z,49.90
2022-08-18T15:06:00.679Z,50.00
2022-08-18T15:08:34.291Z,50.00
2022-08-18T15:11:04.747Z,50.30
2022-08-18T15:13:32.199Z,50.10
2022-08-18T15:16:02.136Z,49.30
2022-08-18T15:18:29.572Z,48.90
2022-08-18T15:21:19.374Z,48.90
2022-08-18T15:24:20.471Z,48.60
2022-08-18T15:26:51.760Z,48.70
2022-08-18T15:29:27.827Z,48.80
2022-08-18T15:32:02.215Z,48.40
2022-08-18T15:34:33.223Z,48.30
2022-08-18T15:37:15.974Z,48.00
2022-08-18T15:39:47.641Z,48.10
2022-08-18T15:42:23.513Z,48.20
2022-08-18T15:44:52.615Z,48.80
2022-08-18T15:47:21.265Z,48.90
2022-08-18T15:49:48.506Z,49.00
2022-08-18T15:52:15.282Z,49.10
2022-08-18T15:54:50.522Z,49.40
2022-08-18T15:57:35.967Z,49.40
2022-08-18T16:00:06.635Z,49.50
2022-08-18T16:02:33.705Z,50.00
2022-08-18T16:05:09.064Z,50.00
2022-08-18T16:07:45.031Z,50.10
2022-08-18T16:10:12.780Z,50.10
2022-08-18T16:12:45.839Z,50.10
2022-08-18T16:15:15.452Z,50.00
2022-08-18T16:17:47.889Z,50.10
2022-08-18T16:20:15.361Z,50.00
2022-08-18T16:22:42.383Z,49.60
2022-08-18T16:25:09.580Z,49.80
2022-08-18T16:27:41.002Z,49.90
2022-08-18T16:30:14.443Z,50.30
2022-08-18T16:32:41.979Z,50.10
2022-08-18T16:35:09.341Z,50.00
2022-08-18T16:37:36.227Z,50.10
2022-08-18T16:40:03.949Z,50.30
2022-08-18T16:42:32.543Z,50.30
2022-08-18T16:45:01.893Z,50.40
2022-08-18T16:47:29.531Z,50.30
2022-08-18T16:49:58.472Z,50.50
2022-08-18T16:52:27.266Z,50.70
2022-08-18T16:54:57.545Z,50.80
2022-08-18T16:57:55.092Z,50.90
2022-08-18T17:00:43.309Z,51.10
2022-08-18T17:03:30.405Z,51.20
2022-08-18T17:06:05.674Z,51.20
2022-08-18T17:08:35.730Z,51.30
2022-08-18T17:11:05.442Z,51.40
2022-08-18T17:13:36.378Z,51.60
2022-08-18T17:16:03.587Z,51.30
2022-08-18T17:18:30.766Z,51.30
2022-08-18T17:21:02.520Z,51.20
2022-08-18T17:23:31.112Z,51.10
2022-08-18T17:26:00.143Z,51.10
2022-08-18T17:28:50.565Z,51.30
2022-08-18T17:31:20.939Z,51.30
2022-08-18T17:33:49.222Z,51.40
2022-08-18T17:36:34.510Z,51.60
2022-08-18T17:39:05.752Z,51.90
2022-08-18T17:41:54.923Z,52.20
2022-08-18T17:44:21.807Z,52.30
2022-08-18T17:47:00.621Z,52.50
2022-08-18T17:50:27.490Z,52.90
2022-08-18T17:52:52.639Z,53.30
2022-08-18T17:55:28.694Z,53.50
2022-08-18T17:58:03.865Z,53.80
2022-08-18T18:00:34.585Z,54.00
2022-08-18T18:03:01.791Z,54.10
2022-08-18T18:05:39.233Z,54.30
2022-08-18T18:08:06.822Z,54.50
2022-08-18T18:13:34.854Z,55.20
2022-08-18T18:16:37.661Z,55.40
2022-08-18T18:19:08.788Z,55.40
2022-08-18T18:22:00.392Z,55.70
2022-08-18T18:24:32.891Z,55.80
2022-08-18T18:27:00.098Z,55.90
2022-08-18T18:29:38.011Z,56.20
2022-08-18T18:32:27.536Z,56.40
2022-08-18T18:35:08.395Z,56.40
2022-08-18T18:37:47.160Z,56.70
2022-08-18T18:40:57.788Z,56.80
2022-08-18T18:43:46.829Z,56.80
2022-08-18T18:46:25.250Z,57.00
2022-08-18T18:48:58.319Z,57.50
2022-08-18T18:51:35.986Z,57.60
2022-08-18T18:54:20.978Z,57.80
2022-08-18T18:56:57.472Z,58.00
2022-08-18T18:59:50.702Z,58.00
2022-08-18T19:02:40.816Z,57.90
2022-08-18T19:05:14.049Z,58.10
2022-08-18T19:07:56.268Z,58.30
2022-08-18T19:10:38.108Z,58.10
2022-08-18T19:13:09.086Z,58.70
2022-08-18T19:15:38.606Z,58.10
2022-08-18T19:18:26.555Z,58.40
2022-08-18T19:22:01.854Z,58.50
2022-08-18T19:24:17.356Z,58.80
2022-08-18T19:26:50.772Z,59.10
2022-08-18T19:29:22.983Z,59.30
2022-08-18T19:32:05.025Z,59.70
2022-08-18T19:34:51.504Z,59.60
2022-08-18T19:37:27.180Z,59.80
2022-08-18T19:40:16.662Z,59.80
2022-08-18T19:42:54.557Z,59.90
2022-08-18T19:45:46.613Z,60.20
2022-08-18T19:48:34.833Z,59.80
2022-08-18T19:51:33.987Z,60.50
2022-08-18T19:54:21.890Z,60.50
2022-08-18T19:57:23.834Z,61.10
2022-08-18T19:59:57.265Z,61.40
2022-08-18T20:02:35.460Z,61.50
2022-08-18T20:05:28.242Z,61.60
2022-08-18T20:08:24.244Z,61.70
2022-08-18T20:10:57.892Z,61.90
2022-08-18T20:13:42.899Z,61.80
2022-08-18T20:16:43.491Z,61.30
2022-08-18T20:19:39.096Z,61.40
2022-08-18T20:22:15.861Z,61.20
2022-08-18T20:24:51.948Z,62.10
2022-08-18T20:27:40.576Z,62.10
2022-08-18T20:30:19.690Z,62.60
2022-08-18T20:33:17.508Z,62.90
2022-08-18T20:35:56.065Z,63.20
2022-08-18T20:38:36.878Z,63.40
2022-08-18T20:41:25.553Z,62.80
2022-08-18T20:43:59.352Z,62.50
2022-08-18T20:47:03.100Z,62.80
2022-08-18T20:50:07.871Z,62.40
2022-08-18T20:53:00.663Z,63.20
2022-08-18T20:55:37.362Z,62.80
2022-08-18T20:58:15.641Z,63.10
2022-08-18T21:00:47.504Z,63.10
2022-08-18T21:03:16.199Z,62.90
2022-08-18T21:05:45.171Z,62.70
2022-08-18T21:08:16.087Z,62.90
2022-08-18T21:10:57.897Z,63.30
2022-08-18T21:13:32.190Z,63.70
2022-08-18T21:15:59.763Z,64.00
2022-08-18T21:18:27.559Z,64.30
2022-08-18T21:20:57.052Z,64.70
2022-08-18T21:23:33.843Z,65.30
2022-08-18T21:26:09.491Z,65.80
2022-08-18T21:28:39.710Z,65.90
2022-08-18T21:31:44.243Z,65.20
2022-08-18T21:34:13.698Z,64.80
2022-08-18T21:36:51.577Z,65.80
2022-08-18T21:39:21.162Z,66.40
2022-08-18T21:41:51.657Z,66.30
2022-08-18T21:44:23.964Z,66.90
2022-08-18T21:47:02.909Z,67.00
2022-08-18T21:49:29.737Z,66.70
2022-08-18T21:51:57.232Z,66.40
2022-08-18T21:54:28.588Z,66.70
2022-08-18T21:57:27.511Z,66.90
2022-08-18T22:00:17.312Z,66.90
2022-08-18T22:02:45.886Z,67.00
2022-08-18T22:05:24.518Z,67.00
2022-08-18T22:07:51.395Z,66.40
2022-08-18T22:10:48.544Z,66.40
2022-08-18T22:13:43.442Z,67.80
2022-08-18T22:16:34.013Z,67.00
2022-08-18T22:19:20.390Z,66.60
2022-08-18T22:22:27.348Z,66.40
2022-08-18T22:24:58.170Z,67.20
2022-08-18T22:27:26.593Z,67.00
2022-08-18T22:30:04.643Z,67.00
2022-08-18T22:32:35.451Z,68.00
2022-08-18T22:35:03.444Z,67.80
2022-08-18T22:37:48.798Z,67.40
2022-08-18T22:40:21.556Z,67.10
2022-08-18T22:42:50.067Z,66.90
2022-08-18T22:45:18.769Z,67.00
2022-08-18T22:47:45.475Z,66.80
2022-08-18T22:50:13.242Z,66.90
2022-08-18T22:52:47.284Z,67.00
2022-08-18T22:55:21.768Z,67.20
2022-08-18T22:57:56.119Z,67.90
2022-08-18T23:00:25.307Z,66.90
2022-08-18T23:02:53.511Z,67.10
2022-08-18T23:05:20.803Z,67.30
2022-08-18T23:07:47.713Z,67.50
2022-08-18T23:10:16.582Z,67.50
2022-08-18T23:12:44.555Z,67.50
2022-08-18T23:15:14.141Z,68.20
2022-08-18T23:17:41.935Z,68.30
2022-08-18T23:20:12.287Z,68.90
2022-08-18T23:22:44.627Z,68.90
2022-08-18T23:25:11.728Z,68.50
2022-08-18T23:27:39.477Z,68.50
2022-08-18T23:30:06.794Z,68.70
2022-08-18T23:32:33.566Z,68.80
2022-08-18T23:35:00.885Z,68.40
2022-08-18T23:37:27.778Z,68.20
2022-08-18T23:39:55.854Z,68.40
2022-08-18T23:42:23.128Z,68.40
2022-08-18T23:44:53.374Z,68.80
2022-08-18T23:47:20.840Z,68.90
2022-08-18T23:49:48.393Z,68.60
2022-08-18T23:52:15.188Z,68.80
2022-08-18T23:54:41.984Z,68.80
2022-08-18T23:57:08.957Z,68.60
2022-08-18T23:59:35.709Z,68.50
